createdAt,value
2022-07-30T00:02:10.691Z,99.90
2022-07-30T00:04:38.645Z,99.90
2022-07-30T00:07:08.302Z,99.90
2022-07-30T00:09:36.462Z,99.90
2022-07-30T00:12:05.407Z,99.90
2022-07-30T00:14:34.868Z,99.90
2022-07-30T00:17:03.889Z,99.90
2022-07-30T00:19:32.460Z,99.90
2022-07-30T00:22:00.594Z,99.90
2022-07-30T00:24:30.076Z,99.90
2022-07-30T00:26:58.838Z,99.90
2022-07-30T00:29:27.252Z,99.90
2022-07-30T00:31:56.592Z,99.90
2022-07-30T00:34:24.572Z,99.90
2022-07-30T00:36:52.966Z,99.90
2022-07-30T00:39:21.014Z,99.90
2022-07-30T00:41:58.866Z,99.90
2022-07-30T00:44:27.501Z,99.90
2022-07-30T00:46:55.942Z,99.90
2022-07-30T00:49:24.864Z,99.90
2022-07-30T00:51:53.393Z,99.90
2022-07-30T00:54:22.145Z,99.90
2022-07-30T00:56:50.812Z,99.90
2022-07-30T00:59:20.314Z,99.90
2022-07-30T01:01:48.368Z,99.90
2022-07-30T01:04:16.383Z,99.90
2022-07-30T01:06:44.411Z,99.90
2022-07-30T01:09:12.424Z,99.90
2022-07-30T01:11:42.495Z,99.90
2022-07-30T01:14:10.925Z,99.90
2022-07-30T01:16:43.639Z,99.90
2022-07-30T01:19:36.335Z,99.90
2022-07-30T01:22:11.688Z,99.90
2022-07-30T01:24:43.939Z,99.90
2022-07-30T01:27:19.630Z,99.90
2022-07-30T01:29:49.947Z,99.90
2022-07-30T01:32:20.572Z,99.90
2022-07-30T01:34:50.146Z,99.90
2022-07-30T01:37:20.376Z,99.90
2022-07-30T01:39:50.231Z,99.90
2022-07-30T01:42:21.524Z,99.90
2022-07-30T01:44:50.941Z,99.90
2022-07-30T01:47:22.066Z,99.90
2022-07-30T01:49:51.623Z,99.90
2022-07-30T01:52:21.721Z,99.90
2022-07-30T01:54:53.350Z,99.90
2022-07-30T01:57:24.099Z,99.90
2022-07-30T01:59:55.850Z,99.90
2022-07-30T02:02:23.941Z,99.90
2022-07-30T02:04:52.051Z,99.90
2022-07-30T02:07:25.589Z,99.90
2022-07-30T02:09:57.030Z,99.90
2022-07-30T02:12:31.427Z,99.90
2022-07-30T02:15:12.682Z,99.90
2022-07-30T02:17:45.209Z,99.90
2022-07-30T02:20:15.315Z,99.90
2022-07-30T02:22:47.095Z,99.90
2022-07-30T02:25:20.997Z,99.90
2022-07-30T02:27:55.742Z,99.90
2022-07-30T02:30:27.854Z,99.90
2022-07-30T02:33:03.196Z,99.90
2022-07-30T02:35:32.857Z,99.90
2022-07-30T02:38:03.707Z,99.90
2022-07-30T02:40:32.862Z,99.90
2022-07-30T02:43:03.088Z,99.90
2022-07-30T02:45:32.388Z,99.90
2022-07-30T02:48:03.066Z,99.90
2022-07-30T02:50:32.803Z,99.90
2022-07-30T02:53:03.645Z,99.90
2022-07-30T02:55:35.405Z,99.90
2022-07-30T02:58:06.893Z,99.90
2022-07-30T03:00:36.251Z,99.90
2022-07-30T03:03:07.192Z,99.90
2022-07-30T03:05:39.458Z,99.90
2022-07-30T03:08:09.638Z,99.90
2022-07-30T03:10:38.395Z,99.90
2022-07-30T03:13:10.284Z,99.90
2022-07-30T03:15:40.238Z,99.90
2022-07-30T03:18:10.311Z,99.90
2022-07-30T03:20:39.717Z,99.90
2022-07-30T03:23:09.059Z,99.90
2022-07-30T03:25:37.704Z,99.90
2022-07-30T03:28:08.525Z,99.90
2022-07-30T03:30:37.756Z,99.90
2022-07-30T03:33:07.391Z,99.90
2022-07-30T03:35:36.338Z,99.90
2022-07-30T03:38:06.965Z,99.90
2022-07-30T03:40:35.276Z,99.90
2022-07-30T03:43:03.582Z,99.90
2022-07-30T03:45:34.229Z,99.90
2022-07-30T03:48:09.093Z,99.90
2022-07-30T03:50:40.606Z,99.90
2022-07-30T03:53:11.080Z,99.90
2022-07-30T03:56:00.179Z,99.90
2022-07-30T03:58:56.334Z,99.90
2022-07-30T04:01:27.427Z,99.90
2022-07-30T04:04:07.809Z,99.90
2022-07-30T04:06:39.674Z,99.90
2022-07-30T04:09:09.036Z,99.90
2022-07-30T04:11:41.370Z,99.90
2022-07-30T04:14:12.796Z,99.90
2022-07-30T04:16:48.879Z,99.90
2022-07-30T04:19:24.033Z,99.90
2022-07-30T04:21:56.466Z,99.90
2022-07-30T04:24:26.658Z,99.90
2022-07-30T04:26:55.337Z,99.90
2022-07-30T04:29:24.820Z,99.90
2022-07-30T04:31:56.900Z,99.90
2022-07-30T04:34:49.426Z,99.90
2022-07-30T04:37:23.840Z,99.90
2022-07-30T04:39:54.424Z,99.90
2022-07-30T04:42:23.144Z,99.90
2022-07-30T04:45:02.207Z,99.90
2022-07-30T04:47:37.477Z,99.90
2022-07-30T04:50:30.371Z,99.90
2022-07-30T04:52:59.668Z,99.90
2022-07-30T04:55:30.981Z,99.90
2022-07-30T04:58:00.715Z,99.90
2022-07-30T05:00:35.733Z,99.90
2022-07-30T05:03:12.618Z,99.90
2022-07-30T05:05:43.818Z,99.90
2022-07-30T05:08:14.110Z,99.90
2022-07-30T05:10:42.461Z,99.90
2022-07-30T05:13:14.114Z,99.90
2022-07-30T05:15:44.577Z,99.90
2022-07-30T05:18:14.915Z,99.90
2022-07-30T05:20:44.788Z,99.90
2022-07-30T05:23:21.704Z,99.90
2022-07-30T05:25:59.228Z,99.90
2022-07-30T05:28:39.612Z,99.90
2022-07-30T05:31:12.913Z,99.90
2022-07-30T05:33:43.447Z,99.90
2022-07-30T05:36:17.083Z,99.90
2022-07-30T05:38:45.162Z,99.90
2022-07-30T05:41:33.449Z,99.90
2022-07-30T05:44:11.571Z,99.90
2022-07-30T05:46:39.740Z,99.90
2022-07-30T05:49:09.257Z,99.90
2022-07-30T05:51:37.349Z,99.90
2022-07-30T05:54:05.689Z,99.90
2022-07-30T05:56:44.991Z,99.90
2022-07-30T05:59:15.926Z,99.90
2022-07-30T06:02:04.283Z,99.90
2022-07-30T06:04:46.252Z,99.90
2022-07-30T06:07:14.855Z,99.90
2022-07-30T06:09:42.862Z,99.90
2022-07-30T06:12:11.994Z,99.90
2022-07-30T06:14:42.083Z,99.90
2022-07-30T06:17:13.803Z,99.90
2022-07-30T06:20:10.098Z,99.90
2022-07-30T06:22:50.076Z,99.90
2022-07-30T06:25:25.392Z,99.90
2022-07-30T06:27:53.481Z,99.90
2022-07-30T06:30:21.542Z,99.90
2022-07-30T06:32:59.902Z,99.90
2022-07-30T06:35:29.298Z,99.90
2022-07-30T06:38:04.978Z,99.90
2022-07-30T06:40:40.900Z,99.90
2022-07-30T06:43:19.464Z,99.90
2022-07-30T06:46:06.007Z,99.90
2022-07-30T06:48:44.405Z,99.90
2022-07-30T06:51:14.182Z,99.90
2022-07-30T06:53:42.689Z,99.90
2022-07-30T06:56:13.885Z,99.90
2022-07-30T06:59:08.413Z,99.90
2022-07-30T07:01:54.996Z,99.90
2022-07-30T07:04:24.514Z,99.00
2022-07-30T07:06:53.841Z,90.80
2022-07-30T07:09:29.431Z,81.60
2022-07-30T07:12:16.878Z,71.20
2022-07-30T07:17:15.874Z,61.00
2022-07-30T07:20:02.350Z,55.60
2022-07-30T07:22:38.302Z,53.10
2022-07-30T07:25:07.283Z,49.60
2022-07-30T07:27:35.323Z,46.90
2022-07-30T07:30:06.206Z,45.90
2022-07-30T07:32:38.054Z,46.50
2022-07-30T07:35:07.769Z,45.40
2022-07-30T07:37:40.288Z,44.90
2022-07-30T07:40:10.580Z,45.30
2022-07-30T07:42:42.889Z,45.50
2022-07-30T07:45:11.880Z,46.10
2022-07-30T07:47:51.992Z,48.20
2022-07-30T07:50:40.549Z,51.80
2022-07-30T07:53:15.102Z,51.90
2022-07-30T07:55:43.122Z,48.30
2022-07-30T07:58:13.651Z,48.70
2022-07-30T08:00:46.272Z,48.80
2022-07-30T08:09:10.846Z,48.20
2022-07-30T08:11:57.732Z,42.40
2022-07-30T08:14:47.242Z,41.40
2022-07-30T08:17:44.768Z,39.70
2022-07-30T08:20:19.114Z,38.40
2022-07-30T08:25:21.812Z,38.90
2022-07-30T08:27:53.194Z,40.70
2022-07-30T08:30:21.729Z,40.20
2022-07-30T08:32:49.948Z,39.00
2022-07-30T08:35:18.222Z,38.70
2022-07-30T08:37:46.534Z,37.70
2022-07-30T08:40:15.425Z,38.80
2022-07-30T08:42:54.448Z,39.10
2022-07-30T08:45:34.727Z,39.70
2022-07-30T08:48:24.107Z,38.50
2022-07-30T08:50:52.865Z,37.50
2022-07-30T08:53:36.672Z,36.80
2022-07-30T08:56:06.106Z,37.40
2022-07-30T08:58:35.955Z,36.40
2022-07-30T09:01:05.313Z,36.70
2022-07-30T09:03:34.091Z,36.70
2022-07-30T09:06:04.576Z,37.10
2022-07-30T09:08:33.195Z,38.00
2022-07-30T09:11:01.436Z,40.80
2022-07-30T09:13:31.398Z,43.90
2022-07-30T09:16:03.362Z,46.00
2022-07-30T09:18:34.842Z,47.20
2022-07-30T09:21:15.639Z,49.20
2022-07-30T09:23:59.973Z,50.50
2022-07-30T09:26:57.938Z,51.20
2022-07-30T09:29:59.964Z,52.40
2022-07-30T09:32:51.995Z,53.30
2022-07-30T09:35:39.039Z,54.50
2022-07-30T09:38:13.708Z,54.90
2022-07-30T09:40:57.617Z,55.50
2022-07-30T09:43:53.474Z,54.90
2022-07-30T09:46:41.995Z,54.80
2022-07-30T09:49:17.043Z,55.30
2022-07-30T09:51:56.441Z,53.50
2022-07-30T09:54:51.419Z,51.70
2022-07-30T09:57:26.538Z,50.80
2022-07-30T10:00:16.280Z,50.50
2022-07-30T10:02:51.680Z,52.30
2022-07-30T10:05:52.992Z,52.50
2022-07-30T10:08:22.110Z,52.40
2022-07-30T10:10:50.871Z,51.50
2022-07-30T10:13:21.129Z,50.50
2022-07-30T10:15:51.438Z,49.70
2022-07-30T10:18:20.003Z,48.90
2022-07-30T10:21:16.784Z,48.90
2022-07-30T10:24:09.771Z,47.50
2022-07-30T11:01:00.815Z,47.50
2022-07-30T11:03:38.754Z,45.90
2022-07-30T11:06:29.174Z,45.70
2022-07-30T11:08:58.588Z,46.60
2022-07-30T11:12:01.034Z,47.60
2022-07-30T11:14:58.358Z,47.60
2022-07-30T11:18:00.086Z,48.20
2022-07-30T11:20:28.560Z,47.90
2022-07-30T11:23:14.088Z,47.90
2022-07-30T11:25:51.730Z,47.20
2022-07-30T11:28:36.751Z,46.50
2022-07-30T11:31:48.739Z,47.50
2022-07-30T11:34:27.650Z,48.80
2022-07-30T11:37:18.864Z,48.50
2022-07-30T11:40:12.726Z,48.00
2022-07-30T11:42:43.564Z,46.20
2022-07-30T11:45:29.383Z,46.70
2022-07-30T11:48:00.159Z,46.10
2022-07-30T11:50:31.004Z,46.20
2022-07-30T11:53:00.862Z,46.90
2022-07-30T11:55:31.269Z,46.70
2022-07-30T11:58:02.295Z,47.30
2022-07-30T12:00:36.411Z,47.50
2022-07-30T12:03:12.261Z,46.20
2022-07-30T12:05:40.869Z,45.50
2022-07-30T12:08:09.112Z,45.20
2022-07-30T12:10:59.471Z,45.00
2022-07-30T12:13:43.956Z,44.80
2022-07-30T12:16:17.220Z,43.80
2022-07-30T12:18:46.265Z,42.30
2022-07-30T12:21:15.945Z,42.10
2022-07-30T12:23:53.926Z,42.20
2022-07-30T12:26:22.984Z,41.80
2022-07-30T12:28:52.598Z,41.80
2022-07-30T12:31:20.968Z,42.70
2022-07-30T12:33:48.950Z,42.50
2022-07-30T12:36:29.334Z,42.60
2022-07-30T12:38:58.091Z,43.10
2022-07-30T12:41:42.377Z,43.00
2022-07-30T12:44:12.238Z,43.20
2022-07-30T12:46:41.814Z,42.70
2022-07-30T12:49:22.345Z,41.20
2022-07-30T12:51:59.713Z,39.80
2022-07-30T12:54:29.753Z,41.00
2022-07-30T12:57:00.363Z,42.00
2022-07-30T12:59:31.090Z,41.50
2022-07-30T13:02:00.434Z,41.20
2022-07-30T13:04:28.973Z,40.60
2022-07-30T13:07:07.888Z,40.30
2022-07-30T13:09:36.514Z,41.20
2022-07-30T13:12:05.479Z,41.20
2022-07-30T13:14:34.928Z,40.90
2022-07-30T13:17:04.234Z,40.30
2022-07-30T13:19:32.677Z,41.50
2022-07-30T13:22:00.706Z,40.50
2022-07-30T13:24:28.633Z,40.80
2022-07-30T13:26:56.617Z,41.30
2022-07-30T13:29:24.548Z,41.20
2022-07-30T13:31:53.900Z,41.10
2022-07-30T13:34:21.849Z,40.70
2022-07-30T13:36:49.911Z,40.80
2022-07-30T13:39:18.045Z,40.90
2022-07-30T13:41:46.432Z,41.10
2022-07-30T13:44:14.613Z,40.80
2022-07-30T13:46:42.809Z,41.20
2022-07-30T13:49:13.009Z,41.50
2022-07-30T13:51:41.530Z,41.20
2022-07-30T13:54:10.671Z,41.20
2022-07-30T13:56:41.899Z,41.70
2022-07-30T13:59:10.016Z,41.90
2022-07-30T14:01:38.152Z,42.60
2022-07-30T14:04:06.760Z,43.20
2022-07-30T14:06:36.090Z,42.70
2022-07-30T14:09:04.555Z,42.80
2022-07-30T14:11:33.126Z,43.40
2022-07-30T14:14:01.143Z,43.80
2022-07-30T14:16:44.679Z,43.20
2022-07-30T14:19:23.661Z,42.80
2022-07-30T14:21:54.363Z,41.90
2022-07-30T14:24:23.266Z,42.10
2022-07-30T14:26:57.353Z,41.40
2022-07-30T14:29:26.934Z,41.00
2022-07-30T14:31:55.254Z,41.20
2022-07-30T14:34:23.343Z,41.20
2022-07-30T14:36:52.758Z,42.50
2022-07-30T14:39:21.158Z,43.20
2022-07-30T14:41:52.358Z,43.20
2022-07-30T14:44:24.542Z,43.10
2022-07-30T14:46:53.178Z,43.20
2022-07-30T14:49:21.811Z,43.40
2022-07-30T14:51:50.986Z,43.00
2022-07-30T14:54:20.601Z,42.60
2022-07-30T14:56:48.835Z,42.60
2022-07-30T14:59:17.019Z,42.60
2022-07-30T15:01:45.177Z,42.80
2022-07-30T15:04:13.221Z,42.10
2022-07-30T15:06:41.789Z,41.50
2022-07-30T15:09:10.523Z,40.80
2022-07-30T15:12:04.329Z,40.60
2022-07-30T15:14:28.419Z,40.70
2022-07-30T15:17:02.052Z,40.60
2022-07-30T15:19:31.823Z,40.40
2022-07-30T15:22:02.128Z,40.80
2022-07-30T15:24:31.401Z,40.10
2022-07-30T15:27:01.346Z,40.30
2022-07-30T15:29:30.802Z,38.90
2022-07-30T15:32:00.987Z,39.00
2022-07-30T15:34:33.891Z,39.30
2022-07-30T15:37:02.492Z,38.50
2022-07-30T15:39:32.300Z,39.40
2022-07-30T15:42:02.508Z,39.80
2022-07-30T15:44:30.989Z,39.80
2022-07-30T15:47:00.112Z,40.10
2022-07-30T15:49:28.811Z,40.20
2022-07-30T15:51:59.322Z,40.30
2022-07-30T15:54:28.262Z,39.70
2022-07-30T15:57:01.113Z,39.10
2022-07-30T15:59:31.613Z,39.30
2022-07-30T16:01:59.971Z,39.50
2022-07-30T16:04:31.349Z,39.40
2022-07-30T16:07:00.832Z,39.00
2022-07-30T16:09:29.036Z,38.70
2022-07-30T16:11:57.440Z,38.30
2022-07-30T16:14:26.515Z,38.00
2022-07-30T16:16:56.273Z,38.10
2022-07-30T16:19:24.338Z,38.40
2022-07-30T16:21:52.658Z,38.70
2022-07-30T16:24:20.726Z,38.30
2022-07-30T16:26:48.854Z,37.30
2022-07-30T16:29:17.778Z,37.40
2022-07-30T16:31:45.836Z,37.50
2022-07-30T16:34:15.250Z,38.00
2022-07-30T16:36:43.250Z,38.80
2022-07-30T16:39:11.811Z,39.40
2022-07-30T16:41:40.701Z,39.70
2022-07-30T16:44:08.712Z,39.90
2022-07-30T16:46:37.622Z,40.30
2022-07-30T16:49:05.660Z,40.30
2022-07-30T16:51:35.379Z,40.80
2022-07-30T16:54:03.618Z,40.80
2022-07-30T16:56:31.681Z,40.70
2022-07-30T16:58:59.812Z,40.30
2022-07-30T17:01:28.671Z,39.60
2022-07-30T17:03:56.745Z,38.80
2022-07-30T17:06:24.744Z,39.10
2022-07-30T17:08:54.099Z,39.70
2022-07-30T17:11:46.721Z,40.30
2022-07-30T17:14:10.338Z,40.90
2022-07-30T17:16:40.351Z,41.00
2022-07-30T17:19:09.595Z,41.30
2022-07-30T17:21:38.884Z,41.70
2022-07-30T17:24:11.798Z,42.10
2022-07-30T17:26:42.786Z,42.10
2022-07-30T17:29:14.278Z,41.30
2022-07-30T17:31:44.068Z,40.00
2022-07-30T17:34:13.950Z,40.50
2022-07-30T17:36:52.691Z,40.70
2022-07-30T17:40:27.225Z,40.70
2022-07-30T17:42:11.558Z,41.50
2022-07-30T17:44:41.032Z,40.90
2022-07-30T17:47:14.570Z,41.00
2022-07-30T17:49:43.263Z,41.00
2022-07-30T17:52:11.701Z,40.80
2022-07-30T17:54:41.186Z,40.00
2022-07-30T17:57:09.474Z,39.90
2022-07-30T17:59:37.541Z,39.70
2022-07-30T18:02:05.993Z,39.60
2022-07-30T18:04:34.823Z,39.80
2022-07-30T18:07:03.001Z,40.30
2022-07-30T18:09:38.634Z,40.50
2022-07-30T18:12:09.608Z,40.30
2022-07-30T18:14:38.572Z,40.70
2022-07-30T18:17:10.017Z,41.20
2022-07-30T18:19:40.870Z,41.60
2022-07-30T18:22:09.153Z,41.90
2022-07-30T18:24:40.593Z,42.50
2022-07-30T18:27:14.252Z,42.90
2022-07-30T18:29:42.661Z,43.30
2022-07-30T18:32:11.352Z,43.50
2022-07-30T18:34:39.316Z,43.80
2022-07-30T18:37:07.297Z,44.00
2022-07-30T18:39:35.317Z,44.20
2022-07-30T18:42:04.540Z,44.40
2022-07-30T18:44:34.476Z,44.60
2022-07-30T18:47:02.615Z,44.80
2022-07-30T18:49:38.354Z,45.10
2022-07-30T18:52:08.144Z,45.20
2022-07-30T18:54:36.855Z,45.60
2022-07-30T18:57:05.526Z,45.80
2022-07-30T18:59:35.005Z,46.10
2022-07-30T19:02:04.639Z,46.40
2022-07-30T19:04:33.269Z,46.80
2022-07-30T19:07:01.327Z,47.20
2022-07-30T19:09:29.337Z,47.50
2022-07-30T19:11:57.338Z,47.80
2022-07-30T19:14:25.358Z,48.10
2022-07-30T19:16:54.921Z,48.40
2022-07-30T19:19:27.810Z,48.70
2022-07-30T19:21:56.864Z,48.90
2022-07-30T19:24:27.036Z,49.00
2022-07-30T19:26:56.173Z,49.20
2022-07-30T19:29:24.548Z,49.40
2022-07-30T19:31:54.086Z,49.70
2022-07-30T19:34:22.065Z,49.90
2022-07-30T19:36:50.075Z,50.10
2022-07-30T19:39:21.742Z,50.40
2022-07-30T19:41:50.803Z,50.70
2022-07-30T19:44:19.682Z,51.00
2022-07-30T19:46:51.636Z,51.20
2022-07-30T19:49:21.715Z,51.30
2022-07-30T19:52:10.534Z,51.70
2022-07-30T19:54:39.415Z,52.00
2022-07-30T19:57:07.588Z,52.40
2022-07-30T19:59:46.194Z,52.50
2022-07-30T20:02:24.045Z,52.60
2022-07-30T20:04:56.054Z,52.50
2022-07-30T20:07:27.589Z,52.70
2022-07-30T20:09:56.137Z,52.80
2022-07-30T20:12:24.451Z,52.90
2022-07-30T20:14:54.738Z,53.10
2022-07-30T20:17:23.780Z,53.30
2022-07-30T20:19:58.012Z,53.40
2022-07-30T20:22:27.771Z,53.60
2022-07-30T20:24:56.242Z,53.80
2022-07-30T20:27:35.721Z,54.10
2022-07-30T20:30:05.702Z,54.40
2022-07-30T20:32:33.707Z,54.40
2022-07-30T20:35:03.098Z,54.30
2022-07-30T20:37:31.335Z,54.50
2022-07-30T20:39:59.488Z,54.60
2022-07-30T20:42:28.457Z,54.80
2022-07-30T20:44:58.246Z,54.80
2022-07-30T20:47:38.526Z,55.00
2022-07-30T20:50:10.425Z,55.20
2022-07-30T20:52:40.049Z,55.30
2022-07-30T20:55:09.408Z,55.30
2022-07-30T20:57:57.004Z,55.60
2022-07-30T21:00:25.562Z,55.80
2022-07-30T21:02:53.515Z,56.10
2022-07-30T21:05:26.876Z,56.30
2022-07-30T21:07:56.359Z,56.60
2022-07-30T21:10:26.163Z,56.90
2022-07-30T21:12:58.623Z,56.90
2022-07-30T21:15:32.745Z,57.20
2022-07-30T21:18:01.811Z,57.40
2022-07-30T21:20:32.082Z,57.80
2022-07-30T21:23:10.267Z,58.20
2022-07-30T21:26:01.637Z,59.20
2022-07-30T21:28:29.191Z,59.80
2022-07-30T21:30:57.674Z,60.10
2022-07-30T21:33:31.339Z,60.40
2022-07-30T21:36:01.096Z,60.20
2022-07-30T21:38:30.455Z,60.30
2022-07-30T21:41:00.199Z,60.10
2022-07-30T21:43:30.534Z,59.80
2022-07-30T21:46:03.651Z,59.60
2022-07-30T21:48:35.320Z,59.80
2022-07-30T21:51:05.083Z,60.60
2022-07-30T21:53:46.206Z,61.20
2022-07-30T21:56:21.219Z,60.90
2022-07-30T21:58:49.394Z,61.00
2022-07-30T22:01:21.772Z,60.60
2022-07-30T22:04:01.461Z,61.40
2022-07-30T22:06:38.126Z,61.40
2022-07-30T22:09:18.974Z,62.50
2022-07-30T22:11:54.879Z,63.30
2022-07-30T22:17:22.563Z,63.50
2022-07-30T22:19:53.729Z,64.20
2022-07-30T22:22:26.679Z,64.90
2022-07-30T22:24:55.970Z,65.50
2022-07-30T22:27:26.525Z,66.10
2022-07-30T22:29:55.665Z,66.30
2022-07-30T22:32:24.154Z,67.10
2022-07-30T22:34:52.854Z,67.90
2022-07-30T23:12:31.417Z,63.50
